Time;durP1;ratioP1;P1;durP2;ratioP2;P2;SDS_P1;SDS_P2;PMS_P1;PMS_P2;Temp;Humidity;BMP_temperature;BMP_pressure;BME280_temperature;BME280_humidity;BME280_pressure;Samples;Min_cycle;Max_cycle;Signal;HPM_P1;HPM_P2
2022/07/23 00:00:04;;;;;;;;;;;;;;;;;;5114109;28;19967;-75
2022/07/23 00:02:31;;;;;;;;;;;;;;;;;;5113537;28;19924;-76
2022/07/23 00:05:03;;;;;;;;;;;;;;;;;;5116078;28;19961;-77
2022/07/23 00:07:53;;;;;;;;;;;;;;;;;;5113632;28;19980;-77
2022/07/23 00:10:20;;;;;;;;;;;;;;;;;;5115171;28;19960;-77
2022/07/23 00:12:47;;;;;;;;;;;;;;;;;;5113542;28;20010;-77
2022/07/23 00:15:14;;;;;;;;;;;;;;;;;;5114175;28;20441;-78
2022/07/23 00:17:41;;;;;;;;;;;;;;;;;;5113303;28;19971;-77
2022/07/23 00:20:08;;;;;;;;;;;;;;;;;;5113772;28;19982;-78
2022/07/23 00:22:35;;;;;;;;;;;;;;;;;;5113598;28;20297;-77
2022/07/23 00:25:01;;;;;;;;;;;;;;;;;;5113785;28;19990;-77
2022/07/23 00:27:28;;;;;;;;;;;;;;;;;;5113160;28;19924;-77
2022/07/23 00:29:54;;;;;;;;;;;;;;;;;;5113741;28;19930;-77
2022/07/23 00:32:22;;;;;;;;;;;;;;;;;;5113544;28;20019;-78
2022/07/23 00:34:48;;;;;;;;;;;;;;;;;;5114184;28;19924;-77
2022/07/23 00:37:15;;;;;;;;;;;;;;;;;;5113466;28;19967;-77
2022/07/23 00:39:41;;;;;;;;;;;;;;;;;;5113324;28;19923;-77
2022/07/23 00:42:08;;;;;;;;;;;;;;;;;;5113351;28;19930;-78
2022/07/23 00:44:34;;;;;;;;;;;;;;;;;;5114126;28;19989;-78
2022/07/23 00:47:01;;;;;;;;;;;;;;;;;;5113490;28;20386;-78
2022/07/23 00:49:29;;;;;;;;;;;;;;;;;;5118083;28;19924;-77
2022/07/23 00:51:56;;;;;;;;;;;;;;;;;;5117560;28;19923;-78
2022/07/23 00:54:24;;;;;;;;;;;;;;;;;;5119194;28;19924;-78
2022/07/23 00:56:50;;;;;;;;;;;;;;;;;;5118280;28;19970;-79
2022/07/23 00:59:17;;;;;;;;;;;;;;;;;;5119793;28;19970;-78
2022/07/23 01:01:45;;;;;;;;;;;;;;;;;;5142010;28;19969;-78
2022/07/23 01:04:11;;;;;;;;;;;;;;;;;;5155114;28;19941;-78
2022/07/23 01:06:39;;;;;;;;;;;;;;;;;;5155653;28;19924;-78
2022/07/23 01:09:06;;;;;;;;;;;;;;;;;;5152330;28;19924;-76
2022/07/23 01:11:33;;;;;;;;;;;;;;;;;;5137584;28;19947;-78
2022/07/23 01:14:00;;;;;;;;;;;;;;;;;;5135448;27;19977;-77
2022/07/23 01:16:26;;;;;;;;;;;;;;;;;;5138130;27;19950;-77
2022/07/23 01:18:53;;;;;;;;;;;;;;;;;;5138931;27;20014;-77
2022/07/23 01:21:20;;;;;;;;;;;;;;;;;;5138683;27;19928;-77
2022/07/23 01:23:47;;;;;;;;;;;;;;;;;;5141227;27;19945;-78
2022/07/23 01:26:16;;;;;;;;;;;;;;;;;;5144063;27;20022;-77
2022/07/23 01:28:43;;;;;;;;;;;;;;;;;;5146264;27;19923;-76
2022/07/23 01:31:10;;;;;;;;;;;;;;;;;;5141262;27;19927;-76
2022/07/23 01:33:36;;;;;;;;;;;;;;;;;;5140630;27;19958;-77
2022/07/23 01:36:03;;;;;;;;;;;;;;;;;;5142491;27;19962;-77
2022/07/23 01:38:29;;;;;;;;;;;;;;;;;;5144633;27;20142;-77
2022/07/23 01:40:57;;;;;;;;;;;;;;;;;;5146935;27;19927;-78
2022/07/23 01:43:24;;;;;;;;;;;;;;;;;;5145061;27;19955;-78
2022/07/23 01:45:50;;;;;;;;;;;;;;;;;;5146561;27;20022;-79
2022/07/23 01:48:17;;;;;;;;;;;;;;;;;;5143205;27;19923;-78
2022/07/23 01:50:44;;;;;;;;;;;;;;;;;;5147283;22;19923;-61
2022/07/23 01:53:10;;;;;;;;;;;;;;;;;;5115831;28;19931;-61
2022/07/23 01:55:37;;;;;;;;;;;;;;;;;;5116121;28;19928;-61
2022/07/23 01:58:05;;;;;;;;;;;;;;;;;;5115871;28;19927;-60
2022/07/23 02:00:32;;;;;;;;;;;;;;;;;;5116039;28;19924;-60
2022/07/23 02:02:59;;;;;;;;;;;;;;;;;;5115653;28;19942;-61
2022/07/23 02:05:25;;;;;;;;;;;;;;;;;;5115861;28;20018;-59
2022/07/23 02:07:52;;;;;;;;;;;;;;;;;;5115669;28;19980;-61
2022/07/23 02:10:18;;;;;;;;;;;;;;;;;;5115785;28;19928;-61
2022/07/23 02:12:45;;;;;;;;;;;;;;;;;;5115608;28;19927;-60
2022/07/23 02:15:13;;;;;;;;;;;;;;;;;;5115512;28;19924;-61
2022/07/23 02:17:40;;;;;;;;;;;;;;;;;;5115455;28;19930;-61
2022/07/23 02:20:09;;;;;;;;;;;;;;;;;;5115985;28;19928;-61
2022/07/23 02:22:35;;;;;;;;;;;;;;;;;;5115493;28;19923;-61
2022/07/23 02:25:02;;;;;;;;;;;;;;;;;;5115899;28;20364;-61
2022/07/23 02:27:29;;;;;;;;;;;;;;;;;;5114957;28;20314;-61
2022/07/23 02:29:55;;;;;;;;;;;;;;;;;;5115321;28;19923;-61
2022/07/23 02:32:23;;;;;;;;;;;;;;;;;;5115356;28;19932;-60
2022/07/23 02:34:50;;;;;;;;;;;;;;;;;;5115396;28;19927;-60
2022/07/23 02:37:16;;;;;;;;;;;;;;;;;;5115340;28;19924;-61
2022/07/23 02:39:43;;;;;;;;;;;;;;;;;;5115303;28;19923;-60
2022/07/23 02:42:10;;;;;;;;;;;;;;;;;;5115210;28;19924;-61
2022/07/23 02:44:36;;;;;;;;;;;;;;;;;;5115173;28;19927;-61
2022/07/23 02:47:03;;;;;;;;;;;;;;;;;;5114963;28;19931;-60
2022/07/23 02:49:31;;;;;;;;;;;;;;;;;;5114935;28;19939;-61
2022/07/23 02:51:57;;;;;;;;;;;;;;;;;;5115006;28;19931;-61
2022/07/23 02:54:24;;;;;;;;;;;;;;;;;;5114999;28;19927;-60
2022/07/23 02:56:51;;;;;;;;;;;;;;;;;;5115014;28;19973;-61
2022/07/23 02:59:17;;;;;;;;;;;;;;;;;;5114787;28;19967;-61
2022/07/23 03:01:44;;;;;;;;;;;;;;;;;;5114821;28;20000;-61
2022/07/23 03:04:11;;;;;;;;;;;;;;;;;;5114704;28;19946;-60
2022/07/23 03:06:39;;;;;;;;;;;;;;;;;;5114706;28;20063;-61
2022/07/23 03:09:06;;;;;;;;;;;;;;;;;;5114868;28;20379;-60
2022/07/23 03:11:32;;;;;;;;;;;;;;;;;;5114586;28;20322;-60
2022/07/23 03:13:59;;;;;;;;;;;;;;;;;;5114491;28;19928;-61
2022/07/23 03:16:25;;;;;;;;;;;;;;;;;;5114445;28;19923;-60
2022/07/23 03:18:52;;;;;;;;;;;;;;;;;;5114735;28;20289;-59
2022/07/23 03:21:19;;;;;;;;;;;;;;;;;;5114730;28;20288;-61
2022/07/23 03:23:46;;;;;;;;;;;;;;;;;;5114300;28;19931;-61
2022/07/23 03:26:13;;;;;;;;;;;;;;;;;;5114387;28;20334;-61
2022/07/23 03:28:40;;;;;;;;;;;;;;;;;;5114363;28;19924;-61
2022/07/23 03:31:06;;;;;;;;;;;;;;;;;;5114151;28;19927;-60
2022/07/23 03:33:33;;;;;;;;;;;;;;;;;;5114448;28;19923;-60
2022/07/23 03:35:59;;;;;;;;;;;;;;;;;;5114191;28;19927;-60
2022/07/23 03:38:26;;;;;;;;;;;;;;;;;;5113383;28;19924;-61
2022/07/23 03:40:54;;;;;;;;;;;;;;;;;;5114026;28;20281;-60
2022/07/23 03:43:20;;;;;;;;;;;;;;;;;;5114156;28;20395;-60
2022/07/23 03:45:47;;;;;;;;;;;;;;;;;;5113854;28;19924;-61
2022/07/23 03:48:13;;;;;;;;;;;;;;;;;;5113787;28;20444;-61
2022/07/23 03:50:40;;;;;;;;;;;;;;;;;;5113643;28;19980;-61
2022/07/23 03:53:06;;;;;;;;;;;;;;;;;;5113663;28;20328;-61
2022/07/23 03:55:33;;;;;;;;;;;;;;;;;;5113689;28;19927;-59
2022/07/23 03:58:01;;;;;;;;;;;;;;;;;;5113954;28;19923;-60
2022/07/23 04:00:28;;;;;;;;;;;;;;;;;;5113815;28;19928;-61
2022/07/23 04:02:54;;;;;;;;;;;;;;;;;;5113618;28;19924;-61
2022/07/23 04:05:21;;;;;;;;;;;;;;;;;;5113533;28;19924;-61
2022/07/23 04:07:48;;;;;;;;;;;;;;;;;;5113353;28;19924;-60
2022/07/23 04:10:14;;;;;;;;;;;;;;;;;;5113560;28;19977;-61
2022/07/23 04:12:41;;;;;;;;;;;;;;;;;;5113388;28;19931;-61
2022/07/23 04:15:09;;;;;;;;;;;;;;;;;;5113363;28;19924;-61
2022/07/23 04:17:36;;;;;;;;;;;;;;;;;;5113372;28;19927;-61
2022/07/23 04:20:02;;;;;;;;;;;;;;;;;;5113270;28;19924;-61
2022/07/23 04:22:29;;;;;;;;;;;;;;;;;;5113319;28;19924;-60
2022/07/23 04:24:56;;;;;;;;;;;;;;;;;;5113199;28;19976;-61
2022/07/23 04:27:22;;;;;;;;;;;;;;;;;;5113176;28;19946;-60
2022/07/23 04:29:49;;;;;;;;;;;;;;;;;;5112973;28;19928;-60
2022/07/23 04:32:17;;;;;;;;;;;;;;;;;;5113060;28;20023;-61
2022/07/23 04:34:43;;;;;;;;;;;;;;;;;;5112890;28;19927;-61
2022/07/23 04:37:10;;;;;;;;;;;;;;;;;;5113001;28;19930;-61
2022/07/23 04:39:36;;;;;;;;;;;;;;;;;;5112914;28;19924;-61
2022/07/23 04:42:03;;;;;;;;;;;;;;;;;;5112874;28;19924;-61
2022/07/23 04:44:29;;;;;;;;;;;;;;;;;;5113073;28;20380;-61
2022/07/23 04:46:56;;;;;;;;;;;;;;;;;;5112793;28;19976;-60
2022/07/23 04:49:24;;;;;;;;;;;;;;;;;;5112644;28;19931;-61
2022/07/23 04:51:50;;;;;;;;;;;;;;;;;;5112591;28;20449;-61
2022/07/23 04:54:18;;;;;;;;;;;;;;;;;;5113034;28;19923;-61
2022/07/23 04:56:44;;;;;;;;;;;;;;;;;;5112749;28;19963;-61
2022/07/23 04:59:11;;;;;;;;;;;;;;;;;;5112797;28;19973;-60
2022/07/23 05:01:37;;;;;;;;;;;;;;;;;;5112639;28;19928;-61
2022/07/23 05:04:04;;;;;;;;;;;;;;;;;;5112681;28;19949;-60
2022/07/23 05:06:32;;;;;;;;;;;;;;;;;;5112623;28;19928;-60
2022/07/23 05:08:58;;;;;;;;;;;;;;;;;;5112572;28;19936;-60
2022/07/23 05:11:25;;;;;;;;;;;;;;;;;;5112919;28;20380;-60
2022/07/23 05:13:52;;;;;;;;;;;;;;;;;;5112578;28;20011;-60
2022/07/23 05:16:19;;;;;;;;;;;;;;;;;;5112309;28;19950;-60
2022/07/23 05:18:45;;;;;;;;;;;;;;;;;;5112529;28;19931;-60
2022/07/23 05:21:12;;;;;;;;;;;;;;;;;;5112488;28;20386;-60
2022/07/23 05:23:40;;;;;;;;;;;;;;;;;;5112556;28;20437;-58
2022/07/23 05:26:06;;;;;;;;;;;;;;;;;;5112404;28;19923;-59
2022/07/23 05:28:33;;;;;;;;;;;;;;;;;;5112389;28;19930;-59
2022/07/23 05:30:59;;;;;;;;;;;;;;;;;;5112332;28;19932;-60
2022/07/23 05:33:26;;;;;;;;;;;;;;;;;;5112290;28;19939;-60
2022/07/23 05:35:52;;;;;;;;;;;;;;;;;;5112341;28;20148;-60
2022/07/23 05:38:19;;;;;;;;;;;;;;;;;;5112542;28;19981;-59
2022/07/23 05:40:47;;;;;;;;;;;;;;;;;;5113129;28;20301;-61
2022/07/23 05:43:14;;;;;;;;;;;;;;;;;;5112424;28;20281;-60
2022/07/23 05:45:40;;;;;;;;;;;;;;;;;;5112214;28;19923;-60
2022/07/23 05:48:07;;;;;;;;;;;;;;;;;;5112222;28;19923;-59
2022/07/23 05:50:33;;;;;;;;;;;;;;;;;;5111969;28;19980;-60
2022/07/23 05:53:00;;;;;;;;;;;;;;;;;;5112097;28;19931;-60
2022/07/23 05:55:28;;;;;;;;;;;;;;;;;;5112195;28;19931;-60
2022/07/23 05:57:57;;;;;;;;;;;;;;;;;;5112038;28;19931;-60
2022/07/23 06:00:23;;;;;;;;;;;;;;;;;;5112273;28;19931;-59
2022/07/23 06:02:50;;;;;;;;;;;;;;;;;;5115451;28;19969;-59
2022/07/23 06:05:16;;;;;;;;;;;;;;;;;;5116192;28;19923;-60
2022/07/23 06:07:43;;;;;;;;;;;;;;;;;;5115806;28;19923;-60
2022/07/23 06:10:10;;;;;;;;;;;;;;;;;;5115784;28;19977;-60
2022/07/23 06:12:37;;;;;;;;;;;;;;;;;;5115679;28;19930;-59
2022/07/23 06:15:05;;;;;;;;;;;;;;;;;;5115876;28;19924;-60
2022/07/23 06:17:32;;;;;;;;;;;;;;;;;;5115716;28;19980;-60
2022/07/23 06:19:58;;;;;;;;;;;;;;;;;;5115555;28;19928;-59
2022/07/23 06:22:25;;;;;;;;;;;;;;;;;;5115509;28;20346;-60
2022/07/23 06:24:52;;;;;;;;;;;;;;;;;;5115915;28;20018;-60
2022/07/23 06:27:18;;;;;;;;;;;;;;;;;;5115425;28;19923;-60
2022/07/23 06:29:45;;;;;;;;;;;;;;;;;;5115378;28;19924;-59
2022/07/23 06:32:13;;;;;;;;;;;;;;;;;;5115277;28;20288;-60
2022/07/23 06:34:39;;;;;;;;;;;;;;;;;;5115307;28;19927;-60
2022/07/23 06:37:06;;;;;;;;;;;;;;;;;;5114989;28;19960;-60
2022/07/23 06:39:33;;;;;;;;;;;;;;;;;;5115344;28;19976;-59
2022/07/23 06:42:00;;;;;;;;;;;;;;;;;;5114921;28;19980;-59
2022/07/23 06:44:27;;;;;;;;;;;;;;;;;;5115467;28;20313;-60
2022/07/23 06:46:54;;;;;;;;;;;;;;;;;;5115013;28;19923;-60
2022/07/23 06:49:22;;;;;;;;;;;;;;;;;;5114612;28;19931;-60
2022/07/23 06:51:48;;;;;;;;;;;;;;;;;;5114938;28;19923;-59
2022/07/23 06:54:15;;;;;;;;;;;;;;;;;;5115089;28;19923;-60
2022/07/23 06:56:43;;;;;;;;;;;;;;;;;;5114694;28;20450;-60
2022/07/23 06:59:09;;;;;;;;;;;;;;;;;;5115136;28;20018;-60
2022/07/23 07:01:36;;;;;;;;;;;;;;;;;;5114396;28;20378;-60
2022/07/23 07:04:03;;;;;;;;;;;;;;;;;;5114618;28;19924;-60
2022/07/23 07:06:31;;;;;;;;;;;;;;;;;;5114640;28;20010;-60
2022/07/23 07:08:57;;;;;;;;;;;;;;;;;;5114688;28;19924;-60
2022/07/23 07:11:25;;;;;;;;;;;;;;;;;;5114426;28;20269;-59
2022/07/23 07:13:52;;;;;;;;;;;;;;;;;;5113187;28;20022;-60
2022/07/23 07:16:18;;;;;;;;;;;;;;;;;;5114306;28;19923;-59
2022/07/23 07:18:45;;;;;;;;;;;;;;;;;;5114193;28;19923;-60
2022/07/23 07:21:12;;;;;;;;;;;;;;;;;;5114529;28;19924;-60
2022/07/23 07:23:39;;;;;;;;;;;;;;;;;;5114092;28;19931;-60
2022/07/23 07:26:06;;;;;;;;;;;;;;;;;;5114288;28;19928;-60
2022/07/23 07:28:33;;;;;;;;;;;;;;;;;;5114178;28;20330;-60
2022/07/23 07:30:59;;;;;;;;;;;;;;;;;;5114091;28;20397;-59
2022/07/23 07:33:26;;;;;;;;;;;;;;;;;;5113979;28;20308;-60
2022/07/23 07:35:52;;;;;;;;;;;;;;;;;;5114223;28;19924;-60
2022/07/23 07:38:19;;;;;;;;;;;;;;;;;;5113989;28;19924;-59
2022/07/23 07:40:47;;;;;;;;;;;;;;;;;;5113934;28;19924;-60
2022/07/23 07:43:13;;;;;;;;;;;;;;;;;;5113839;28;19923;-60
2022/07/23 07:45:40;;;;;;;;;;;;;;;;;;5113889;28;19999;-60
2022/07/23 07:48:07;;;;;;;;;;;;;;;;;;5113818;28;19924;-61
2022/07/23 07:50:33;;;;;;;;;;;;;;;;;;5113610;28;19928;-61
2022/07/23 07:53:00;;;;;;;;;;;;;;;;;;5113577;28;19927;-59
2022/07/23 07:55:26;;;;;;;;;;;;;;;;;;5113708;28;20344;-60
2022/07/23 07:57:55;;;;;;;;;;;;;;;;;;5113593;28;19931;-62
2022/07/23 08:00:21;;;;;;;;;;;;;;;;;;5125945;22;20356;-57
2022/07/23 08:02:49;;;;;;;;;;;;;;;;;;5112827;28;19951;-58
2022/07/23 08:05:19;;;;;;;;;;;;;;;;;;5113502;28;20263;-56
2022/07/23 08:07:46;;;;;;;;;;;;;;;;;;5113879;28;19923;-59
2022/07/23 08:10:12;;;;;;;;;;;;;;;;;;5113585;28;19927;-59
2022/07/23 08:12:40;;;;;;;;;;;;;;;;;;5113354;28;19924;-55
2022/07/23 08:15:10;;;;;;;;;;;;;;;;;;5113783;28;20015;-58
2022/07/23 08:17:36;;;;;;;;;;;;;;;;;;5113614;28;20038;-60
2022/07/23 08:20:03;;;;;;;;;;;;;;;;;;5113467;28;19976;-57
2022/07/23 08:22:42;;;;;;;;;;;;;;;;;;5113268;28;20367;-59
2022/07/23 08:25:09;;;;;;;;;;;;;;;;;;5113239;28;19930;-58
2022/07/23 08:27:36;;;;;;;;;;;;;;;;;;5113050;28;19935;-57
2022/07/23 08:30:02;;;;;;;;;;;;;;;;;;5113167;28;19924;-55
2022/07/23 08:32:30;;;;;;;;;;;;;;;;;;5113451;28;19981;-55
2022/07/23 08:34:57;;;;;;;;;;;;;;;;;;5113414;28;19923;-57
2022/07/23 08:37:23;;;;;;;;;;;;;;;;;;5113276;28;20036;-54
2022/07/23 08:39:50;;;;;;;;;;;;;;;;;;5112914;28;19924;-55
2022/07/23 08:42:16;;;;;;;;;;;;;;;;;;5113169;28;20334;-59
2022/07/23 08:44:45;;;;;;;;;;;;;;;;;;5113258;28;19924;-57
2022/07/23 08:47:12;;;;;;;;;;;;;;;;;;5113249;28;19931;-57
2022/07/23 08:49:40;;;;;;;;;;;;;;;;;;5113214;28;20361;-58
2022/07/23 08:52:07;;;;;;;;;;;;;;;;;;5113099;28;19924;-58
2022/07/23 08:54:35;;;;;;;;;;;;;;;;;;5113853;28;20364;-55
2022/07/23 08:57:02;;;;;;;;;;;;;;;;;;5113259;28;20010;-57
2022/07/23 08:59:29;;;;;;;;;;;;;;;;;;5112947;28;19924;-58
2022/07/23 09:01:56;;;;;;;;;;;;;;;;;;5113205;28;20287;-58
2022/07/23 09:04:23;;;;;;;;;;;;;;;;;;5112892;28;19927;-55
2022/07/23 09:06:51;;;;;;;;;;;;;;;;;;5112680;28;19931;-57
2022/07/23 09:09:18;;;;;;;;;;;;;;;;;;5112144;28;20031;-61
2022/07/23 09:11:46;;;;;;;;;;;;;;;;;;5112648;28;19934;-59
2022/07/23 09:14:13;;;;;;;;;;;;;;;;;;5112571;28;19931;-57
2022/07/23 09:16:40;;;;;;;;;;;;;;;;;;5112499;28;19923;-57
2022/07/23 09:19:07;;;;;;;;;;;;;;;;;;5113146;28;19923;-58
2022/07/23 09:21:35;;;;;;;;;;;;;;;;;;5112929;28;19923;-59
2022/07/23 09:24:04;;;;;;;;;;;;;;;;;;5112738;28;20407;-59
2022/07/23 09:26:32;;;;;;;;;;;;;;;;;;5112473;28;19924;-61
2022/07/23 09:29:00;;;;;;;;;;;;;;;;;;5112604;28;19923;-60
2022/07/23 09:31:31;;;;;;;;;;;;;;;;;;5100823;28;19924;-57
2022/07/23 09:34:07;;;;;;;;;;;;;;;;;;5110116;28;19924;-58
2022/07/23 09:36:34;;;;;;;;;;;;;;;;;;5114038;28;19975;-57
2022/07/23 09:39:01;;;;;;;;;;;;;;;;;;5116645;28;20010;-59
2022/07/23 09:41:34;;;;;;;;;;;;;;;;;;5116506;28;19924;-57
2022/07/23 09:44:07;;;;;;;;;;;;;;;;;;5116567;28;20353;-62
2022/07/23 09:46:34;;;;;;;;;;;;;;;;;;5116603;28;19923;-63
2022/07/23 09:49:10;;;;;;;;;;;;;;;;;;5116449;28;20269;-65
2022/07/23 09:51:44;;;;;;;;;;;;;;;;;;5116038;28;19930;-64
2022/07/23 09:54:21;;;;;;;;;;;;;;;;;;5116816;28;20359;-62
2022/07/23 09:56:49;;;;;;;;;;;;;;;;;;5116292;28;19970;-62
2022/07/23 09:59:17;;;;;;;;;;;;;;;;;;5116340;28;19989;-58
2022/07/23 10:01:44;;;;;;;;;;;;;;;;;;5116717;28;20007;-61
2022/07/23 10:04:11;;;;;;;;;;;;;;;;;;5116069;28;19934;-53
2022/07/23 10:06:40;;;;;;;;;;;;;;;;;;5116098;28;19937;-58
2022/07/23 10:09:06;;;;;;;;;;;;;;;;;;5116169;28;19931;-59
2022/07/23 10:11:36;;;;;;;;;;;;;;;;;;5116390;28;20288;-57
2022/07/23 10:14:05;;;;;;;;;;;;;;;;;;5116003;28;19981;-58
2022/07/23 10:16:32;;;;;;;;;;;;;;;;;;5116423;28;20287;-58
2022/07/23 10:18:59;;;;;;;;;;;;;;;;;;5116324;28;19935;-57
2022/07/23 10:21:29;;;;;;;;;;;;;;;;;;5116877;28;20332;-60
2022/07/23 10:24:06;;;;;;;;;;;;;;;;;;5116266;28;19928;-57
2022/07/23 10:26:38;;;;;;;;;;;;;;;;;;5115850;28;19923;-57
2022/07/23 10:29:12;;;;;;;;;;;;;;;;;;5115996;28;19924;-57
2022/07/23 10:31:49;;;;;;;;;;;;;;;;;;5115841;28;19931;-55
2022/07/23 10:34:21;;;;;;;;;;;;;;;;;;5115605;28;19931;-59
2022/07/23 10:36:50;;;;;;;;;;;;;;;;;;5116237;28;19931;-57
2022/07/23 10:39:21;;;;;;;;;;;;;;;;;;5115691;28;19996;-58
2022/07/23 10:41:49;;;;;;;;;;;;;;;;;;5115692;28;19931;-59
2022/07/23 10:44:19;;;;;;;;;;;;;;;;;;5115991;28;19993;-56
2022/07/23 10:49:40;;;;;;;;;;;;;;;;;;5115957;28;19931;-58
2022/07/23 10:52:17;;;;;;;;;;;;;;;;;;5115123;28;19971;-59
2022/07/23 10:54:44;;;;;;;;;;;;;;;;;;5115568;28;19924;-59
2022/07/23 10:57:12;;;;;;;;;;;;;;;;;;5108910;28;19931;-57
2022/07/23 10:59:57;;;;;;;;;;;;;;;;;;5106626;28;20292;-56
2022/07/23 11:02:26;;;;;;;;;;;;;;;;;;5108469;28;19923;-59
2022/07/23 11:04:54;;;;;;;;;;;;;;;;;;5103308;28;20006;-57
2022/07/23 11:07:21;;;;;;;;;;;;;;;;;;5107415;28;20020;-56
2022/07/23 11:09:48;;;;;;;;;;;;;;;;;;5098535;28;19993;-54
2022/07/23 11:12:37;;;;;;;;;;;;;;;;;;5095341;28;19924;-57
2022/07/23 11:15:08;;;;;;;;;;;;;;;;;;5113921;28;19923;-57
2022/07/23 11:17:38;;;;;;;;;;;;;;;;;;5099947;28;19924;-57
2022/07/23 11:20:16;;;;;;;;;;;;;;;;;;5102613;28;19931;-56
2022/07/23 11:22:49;;;;;;;;;;;;;;;;;;5095825;28;19934;-58
2022/07/23 11:25:29;;;;;;;;;;;;;;;;;;5100286;28;20296;-58
2022/07/23 11:28:08;;;;;;;;;;;;;;;;;;5104174;28;20385;-58
2022/07/23 11:30:39;;;;;;;;;;;;;;;;;;5100745;28;20284;-57
2022/07/23 11:33:18;;;;;;;;;;;;;;;;;;5105868;28;19939;-57
2022/07/23 11:35:47;;;;;;;;;;;;;;;;;;5108656;28;19924;-57
2022/07/23 11:38:15;;;;;;;;;;;;;;;;;;5100087;28;19971;-56
2022/07/23 11:40:46;;;;;;;;;;;;;;;;;;5108794;28;19924;-55
2022/07/23 11:43:14;;;;;;;;;;;;;;;;;;5103100;28;19930;-58
2022/07/23 11:45:43;;;;;;;;;;;;;;;;;;5098389;28;20390;-58
2022/07/23 11:48:16;;;;;;;;;;;;;;;;;;5107727;28;19931;-58
2022/07/23 11:50:44;;;;;;;;;;;;;;;;;;5107111;28;20516;-57
2022/07/23 11:53:14;;;;;;;;;;;;;;;;;;5108214;28;19980;-56
2022/07/23 11:55:41;;;;;;;;;;;;;;;;;;5102492;28;20307;-55
2022/07/23 11:58:09;;;;;;;;;;;;;;;;;;5102014;28;19928;-57
2022/07/23 12:00:36;;;;;;;;;;;;;;;;;;5097311;28;20002;-58
2022/07/23 12:03:03;;;;;;;;;;;;;;;;;;5112522;28;19969;-54
2022/07/23 12:05:31;;;;;;;;;;;;;;;;;;5110740;28;20295;-58
2022/07/23 12:08:00;;;;;;;;;;;;;;;;;;5099623;28;20407;-56
2022/07/23 12:10:29;;;;;;;;;;;;;;;;;;5100716;28;20031;-58
2022/07/23 12:12:56;;;;;;;;;;;;;;;;;;5098806;28;19924;-55
2022/07/23 12:15:24;;;;;;;;;;;;;;;;;;5101399;28;19924;-54
2022/07/23 12:17:51;;;;;;;;;;;;;;;;;;5107194;28;19931;-61
2022/07/23 12:20:19;;;;;;;;;;;;;;;;;;5104563;28;20384;-54
2022/07/23 12:22:46;;;;;;;;;;;;;;;;;;5094911;28;20084;-56
2022/07/23 12:25:16;;;;;;;;;;;;;;;;;;5107974;28;19959;-57
2022/07/23 12:27:43;;;;;;;;;;;;;;;;;;5098252;28;20407;-61
2022/07/23 12:30:16;;;;;;;;;;;;;;;;;;5092765;28;19932;-54
2022/07/23 12:32:44;;;;;;;;;;;;;;;;;;5092879;28;19924;-58
2022/07/23 12:35:10;;;;;;;;;;;;;;;;;;5092854;28;20299;-56
2022/07/23 12:37:38;;;;;;;;;;;;;;;;;;5092568;28;19924;-57
2022/07/23 12:40:22;;;;;;;;;;;;;;;;;;5092722;28;19928;-57
2022/07/23 12:42:49;;;;;;;;;;;;;;;;;;5092676;28;20324;-55
2022/07/23 12:45:16;;;;;;;;;;;;;;;;;;5092689;28;19953;-53
2022/07/23 12:47:53;;;;;;;;;;;;;;;;;;5098215;28;19977;-55
2022/07/23 12:50:51;;;;;;;;;;;;;;;;;;5102415;28;19953;-58
2022/07/23 12:53:22;;;;;;;;;;;;;;;;;;5029562;28;19967;-57
2022/07/23 12:55:51;;;;;;;;;;;;;;;;;;5076256;28;20023;-58
2022/07/23 12:58:19;;;;;;;;;;;;;;;;;;5092841;28;20000;-54
2022/07/23 13:00:59;;;;;;;;;;;;;;;;;;5092373;28;19924;-56
2022/07/23 13:03:27;;;;;;;;;;;;;;;;;;5092719;28;19974;-56
2022/07/23 13:05:55;;;;;;;;;;;;;;;;;;5092603;28;19924;-55
2022/07/23 13:08:21;;;;;;;;;;;;;;;;;;5092894;28;20026;-57
2022/07/23 13:10:51;;;;;;;;;;;;;;;;;;5094425;28;19949;-56
2022/07/23 13:13:18;;;;;;;;;;;;;;;;;;5096666;28;19924;-54
2022/07/23 13:15:45;;;;;;;;;;;;;;;;;;5096919;28;19947;-57
2022/07/23 13:18:12;;;;;;;;;;;;;;;;;;5096557;28;19973;-56
2022/07/23 13:20:39;;;;;;;;;;;;;;;;;;5096606;28;19935;-58
2022/07/23 13:23:06;;;;;;;;;;;;;;;;;;5096776;28;19924;-57
2022/07/23 13:25:32;;;;;;;;;;;;;;;;;;5096627;28;20343;-57
2022/07/23 13:28:01;;;;;;;;;;;;;;;;;;5096803;28;20421;-53
2022/07/23 13:30:28;;;;;;;;;;;;;;;;;;5096071;28;19944;-53
2022/07/23 13:32:55;;;;;;;;;;;;;;;;;;5096135;28;20388;-54
2022/07/23 13:35:21;;;;;;;;;;;;;;;;;;5096293;28;20349;-57
2022/07/23 13:37:49;;;;;;;;;;;;;;;;;;5096415;28;19924;-55
2022/07/23 13:40:15;;;;;;;;;;;;;;;;;;5096387;28;20001;-53
2022/07/23 13:42:42;;;;;;;;;;;;;;;;;;5096127;28;19946;-58
2022/07/23 13:45:11;;;;;;;;;;;;;;;;;;5095889;28;19928;-57
2022/07/23 13:47:37;;;;;;;;;;;;;;;;;;5095843;28;20347;-57
2022/07/23 13:50:05;;;;;;;;;;;;;;;;;;5096349;28;19969;-57
2022/07/23 13:52:33;;;;;;;;;;;;;;;;;;5096057;28;20373;-54
2022/07/23 13:55:00;;;;;;;;;;;;;;;;;;5096221;28;19956;-54
2022/07/23 13:57:27;;;;;;;;;;;;;;;;;;5095760;28;19924;-54
2022/07/23 13:59:53;;;;;;;;;;;;;;;;;;5099829;28;19969;-54
2022/07/23 14:02:21;;;;;;;;;;;;;;;;;;5116278;28;19928;-54
2022/07/23 14:04:48;;;;;;;;;;;;;;;;;;5116392;28;19963;-54
2022/07/23 14:07:15;;;;;;;;;;;;;;;;;;5115730;28;19924;-57
2022/07/23 14:09:41;;;;;;;;;;;;;;;;;;5116370;28;19945;-56
2022/07/23 14:12:09;;;;;;;;;;;;;;;;;;5116065;28;20406;-55
2022/07/23 14:14:35;;;;;;;;;;;;;;;;;;5115016;28;19924;-57
2022/07/23 14:17:02;;;;;;;;;;;;;;;;;;5095946;28;20331;-55
2022/07/23 14:19:30;;;;;;;;;;;;;;;;;;5100282;28;19924;-56
2022/07/23 14:21:56;;;;;;;;;;;;;;;;;;5110579;28;20258;-58
2022/07/23 14:24:33;;;;;;;;;;;;;;;;;;5115683;28;19993;-56
2022/07/23 14:27:00;;;;;;;;;;;;;;;;;;5115075;28;19971;-57
2022/07/23 14:29:27;;;;;;;;;;;;;;;;;;5115331;28;19981;-57
2022/07/23 14:31:53;;;;;;;;;;;;;;;;;;5115334;28;19931;-57
2022/07/23 14:34:20;;;;;;;;;;;;;;;;;;5115541;28;19935;-57
2022/07/23 14:36:48;;;;;;;;;;;;;;;;;;5115379;28;20292;-53
2022/07/23 14:39:14;;;;;;;;;;;;;;;;;;5115545;28;19930;-58
2022/07/23 14:41:41;;;;;;;;;;;;;;;;;;5115274;28;19931;-54
2022/07/23 14:44:07;;;;;;;;;;;;;;;;;;5115389;28;19927;-57
2022/07/23 14:46:34;;;;;;;;;;;;;;;;;;5115050;28;20261;-55
2022/07/23 14:49:00;;;;;;;;;;;;;;;;;;5115167;28;19993;-52
2022/07/23 14:51:27;;;;;;;;;;;;;;;;;;5115228;28;19939;-56
2022/07/23 14:53:55;;;;;;;;;;;;;;;;;;5115010;28;19931;-54
2022/07/23 14:56:22;;;;;;;;;;;;;;;;;;5114934;28;19923;-55
2022/07/23 14:58:48;;;;;;;;;;;;;;;;;;5115121;28;19928;-58
2022/07/23 15:01:15;;;;;;;;;;;;;;;;;;5114868;28;19977;-56
2022/07/23 15:03:41;;;;;;;;;;;;;;;;;;5114926;28;19971;-53
2022/07/23 15:06:08;;;;;;;;;;;;;;;;;;5114587;28;20369;-54
2022/07/23 15:08:34;;;;;;;;;;;;;;;;;;5114825;28;20422;-59
2022/07/23 15:11:02;;;;;;;;;;;;;;;;;;5114662;28;19924;-57
2022/07/23 15:13:29;;;;;;;;;;;;;;;;;;5114514;28;19924;-57
2022/07/23 15:15:55;;;;;;;;;;;;;;;;;;5114532;28;19928;-58
2022/07/23 15:18:22;;;;;;;;;;;;;;;;;;5114838;28;20399;-56
2022/07/23 15:20:48;;;;;;;;;;;;;;;;;;5114586;28;19928;-54
2022/07/23 15:23:15;;;;;;;;;;;;;;;;;;5114498;28;20388;-56
2022/07/23 15:25:42;;;;;;;;;;;;;;;;;;5114670;28;20280;-56
2022/07/23 15:28:10;;;;;;;;;;;;;;;;;;5114535;28;19976;-57
2022/07/23 15:30:36;;;;;;;;;;;;;;;;;;5114502;28;20041;-55
2022/07/23 15:33:03;;;;;;;;;;;;;;;;;;5113948;28;19924;-57
2022/07/23 15:35:31;;;;;;;;;;;;;;;;;;5113523;28;19924;-56
2022/07/23 15:37:57;;;;;;;;;;;;;;;;;;5114241;28;19924;-53
2022/07/23 15:40:24;;;;;;;;;;;;;;;;;;5114579;28;19924;-57
2022/07/23 15:42:51;;;;;;;;;;;;;;;;;;5114400;28;19924;-56
2022/07/23 15:45:19;;;;;;;;;;;;;;;;;;5114025;28;19928;-54
2022/07/23 15:47:47;;;;;;;;;;;;;;;;;;5114185;28;19930;-58
2022/07/23 15:50:14;;;;;;;;;;;;;;;;;;5114038;28;20273;-53
2022/07/23 15:52:40;;;;;;;;;;;;;;;;;;5114048;28;20048;-55
2022/07/23 15:55:07;;;;;;;;;;;;;;;;;;5114119;28;19977;-55
2022/07/23 15:57:34;;;;;;;;;;;;;;;;;;5113849;28;20387;-55
2022/07/23 16:00:00;;;;;;;;;;;;;;;;;;5113844;28;19928;-56
2022/07/23 16:02:28;;;;;;;;;;;;;;;;;;5113907;28;20380;-54
2022/07/23 16:04:58;;;;;;;;;;;;;;;;;;5113765;28;19923;-56
2022/07/23 16:07:24;;;;;;;;;;;;;;;;;;5113654;28;19930;-56
2022/07/23 16:09:51;;;;;;;;;;;;;;;;;;5113821;28;19971;-55
2022/07/23 16:12:17;;;;;;;;;;;;;;;;;;5113744;28;19928;-56
2022/07/23 16:14:44;;;;;;;;;;;;;;;;;;5113556;28;19977;-56
2022/07/23 16:17:11;;;;;;;;;;;;;;;;;;5113597;28;19931;-55
2022/07/23 16:34:53;;;;;;;;;;;;;;;;;;5112617;28;19926;-54
2022/07/23 16:37:20;;;;;;;;;;;;;;;;;;5113551;28;20322;-55
2022/07/23 16:39:46;;;;;;;;;;;;;;;;;;5113149;28;19928;-55
2022/07/23 16:42:13;;;;;;;;;;;;;;;;;;5113130;28;19923;-55
2022/07/23 16:44:39;;;;;;;;;;;;;;;;;;5112822;28;19924;-58
2022/07/23 16:47:07;;;;;;;;;;;;;;;;;;5113184;28;20292;-57
2022/07/23 16:49:34;;;;;;;;;;;;;;;;;;5113019;28;19973;-56
2022/07/23 16:52:02;;;;;;;;;;;;;;;;;;5112984;28;20392;-53
2022/07/23 16:54:29;;;;;;;;;;;;;;;;;;5113376;28;19977;-55
2022/07/23 16:56:55;;;;;;;;;;;;;;;;;;5112957;28;19924;-54
2022/07/23 16:59:22;;;;;;;;;;;;;;;;;;5113211;28;19924;-54
2022/07/23 17:01:50;;;;;;;;;;;;;;;;;;5112844;28;19924;-53
2022/07/23 17:07:20;;;;;;;;;;;;;;;;;;5112118;28;19922;-58
2022/07/23 17:12:50;;;;;;;;;;;;;;;;;;5112443;28;19927;-56